Time;durP1;ratioP1;P1;durP2;ratioP2;P2;SDS_P1;SDS_P2;PMS_P1;PMS_P2;Temp;Humidity;BMP_temperature;BMP_pressure;BME280_temperature;BME280_humidity;BME280_pressure;Samples;Min_cycle;Max_cycle;Signal;HPM_P1;HPM_P2
2022/03/14 00:00:28;;;;;;;;;;;4.50;76.60;;;;;;5131193;28;20014;-86
2022/03/14 00:02:54;;;;;;;;;;;4.50;77.40;;;;;;5131141;28;19908;-86
2022/03/14 00:05:20;;;;;;;;;;;4.50;78.30;;;;;;5131107;28;19908;-86
2022/03/14 00:07:46;;;;;;;;;;;4.40;77.20;;;;;;5131362;28;19915;-86
2022/03/14 00:10:16;;;;;;;;;;;4.50;77.50;;;;;;5147486;27;20048;-86
2022/03/14 00:12:42;;;;;;;;;;;4.50;77.40;;;;;;5151645;27;19911;-86
2022/03/14 00:22:36;;;;;;;;;;;4.40;77.10;;;;;;5111067;27;19926;-87
2022/03/14 00:25:02;;;;;;;;;;;4.40;77.10;;;;;;5111035;28;19919;-88
2022/03/14 00:27:27;;;;;;;;;;;4.40;76.30;;;;;;5110937;28;19911;-87
2022/03/14 00:32:22;;;;;;;;;;;4.40;75.60;;;;;;5111143;27;19918;-86
2022/03/14 00:34:47;;;;;;;;;;;4.40;76.20;;;;;;5111314;28;19998;-86
2022/03/14 00:37:13;;;;;;;;;;;4.50;75.40;;;;;;5110985;28;19969;-86
2022/03/14 00:39:39;;;;;;;;;;;4.50;75.00;;;;;;5110961;28;19915;-86
2022/03/14 00:42:04;;;;;;;;;;;4.50;75.10;;;;;;5110853;28;20458;-86
2022/03/14 00:44:31;;;;;;;;;;;4.50;75.50;;;;;;5110865;28;19990;-86
2022/03/14 00:46:57;;;;;;;;;;;4.40;75.70;;;;;;5111078;28;19914;-86
2022/03/14 00:49:22;;;;;;;;;;;4.40;75.60;;;;;;5111021;28;19991;-86
2022/03/14 00:51:48;;;;;;;;;;;4.40;75.50;;;;;;5110651;28;19912;-86
2022/03/14 00:54:13;;;;;;;;;;;4.40;75.70;;;;;;5110653;28;19912;-86
2022/03/14 00:56:39;;;;;;;;;;;4.50;75.70;;;;;;5110652;28;19961;-86
2022/03/14 00:59:04;;;;;;;;;;;4.50;75.50;;;;;;5109251;28;19908;-86
2022/03/14 01:03:47;;;;;;;;;;;4.50;75.70;;;;;;5131664;27;19911;-86
2022/03/14 01:06:12;;;;;;;;;;;4.40;76.30;;;;;;5131553;27;19918;-86
2022/03/14 01:08:38;;;;;;;;;;;4.30;76.60;;;;;;5131659;27;19911;-86
2022/03/14 01:11:03;;;;;;;;;;;4.20;77.00;;;;;;5131469;27;20395;-86
2022/03/14 01:13:29;;;;;;;;;;;4.20;77.20;;;;;;5131717;27;19908;-86
2022/03/14 01:15:55;;;;;;;;;;;4.30;77.70;;;;;;5131340;27;19908;-86
2022/03/14 01:18:20;;;;;;;;;;;4.40;78.20;;;;;;5131304;27;20369;-86
2022/03/14 01:20:46;;;;;;;;;;;4.40;78.10;;;;;;5131239;27;20419;-86
2022/03/14 01:23:12;;;;;;;;;;;4.50;77.40;;;;;;5131426;27;20373;-86
2022/03/14 01:25:38;;;;;;;;;;;4.70;76.80;;;;;;5131189;27;19911;-86
2022/03/14 01:28:03;;;;;;;;;;;4.80;76.80;;;;;;5131162;27;19915;-86
2022/03/14 01:30:29;;;;;;;;;;;4.90;77.00;;;;;;5130947;27;19908;-86
2022/03/14 01:32:55;;;;;;;;;;;4.90;77.90;;;;;;5130986;27;19916;-86
2022/03/14 01:35:20;;;;;;;;;;;4.90;77.50;;;;;;5131251;27;20250;-85
2022/03/14 01:37:49;;;;;;;;;;;4.70;77.50;;;;;;5130976;27;20366;-85
2022/03/14 01:40:15;;;;;;;;;;;4.50;78.50;;;;;;5130876;27;19907;-85
2022/03/14 01:42:41;;;;;;;;;;;4.50;78.40;;;;;;5130820;27;19912;-85
2022/03/14 01:45:07;;;;;;;;;;;4.40;78.60;;;;;;5131138;27;19908;-85
2022/03/14 01:47:34;;;;;;;;;;;4.40;78.60;;;;;;5130837;27;19908;-85
2022/03/14 01:49:59;;;;;;;;;;;4.40;78.70;;;;;;5130697;27;19915;-85
2022/03/14 01:52:25;;;;;;;;;;;4.50;78.40;;;;;;5130702;27;19907;-85
2022/03/14 01:54:51;;;;;;;;;;;4.70;78.00;;;;;;5130679;27;19907;-85
2022/03/14 01:57:16;;;;;;;;;;;4.70;77.80;;;;;;5130598;27;19953;-85
2022/03/14 01:59:42;;;;;;;;;;;4.80;78.10;;;;;;5130787;27;19930;-85
2022/03/14 02:02:08;;;;;;;;;;;4.80;78.50;;;;;;5130457;27;19924;-85
2022/03/14 02:04:35;;;;;;;;;;;4.90;78.70;;;;;;5130424;27;19919;-86
2022/03/14 02:07:00;;;;;;;;;;;4.90;78.40;;;;;;5130672;27;19915;-85
2022/03/14 02:09:26;;;;;;;;;;;5.10;77.20;;;;;;5130528;27;19908;-85
2022/03/14 02:11:55;;;;;;;;;;;5.20;76.40;;;;;;5130294;27;19908;-85
2022/03/14 02:14:20;;;;;;;;;;;5.20;76.10;;;;;;5121072;27;19908;-85
2022/03/14 02:18:07;;;;;;;;;;;5.00;76.50;;;;;;5111072;27;19912;-85
2022/03/14 02:20:33;;;;;;;;;;;5.00;76.80;;;;;;5111048;28;20321;-85
2022/03/14 02:22:58;;;;;;;;;;;5.00;76.90;;;;;;5110994;28;19908;-85
2022/03/14 02:25:24;;;;;;;;;;;5.00;77.40;;;;;;5110939;28;19973;-86
2022/03/14 02:27:50;;;;;;;;;;;4.90;78.60;;;;;;5110889;28;19908;-85
2022/03/14 02:30:16;;;;;;;;;;;4.90;79.50;;;;;;5110725;28;19915;-85
2022/03/14 02:32:42;;;;;;;;;;;4.90;80.10;;;;;;5110752;28;19958;-85
2022/03/14 02:35:08;;;;;;;;;;;4.90;80.40;;;;;;5110749;28;20474;-85
2022/03/14 02:37:33;;;;;;;;;;;4.90;79.20;;;;;;5110689;28;19912;-85
2022/03/14 02:39:59;;;;;;;;;;;5.00;78.80;;;;;;5110652;28;20388;-85
2022/03/14 02:42:24;;;;;;;;;;;5.10;78.00;;;;;;5110602;28;19964;-85
2022/03/14 02:44:50;;;;;;;;;;;5.10;77.50;;;;;;5110547;28;19966;-85
2022/03/14 02:47:15;;;;;;;;;;;5.20;78.30;;;;;;5110566;28;19908;-86
2022/03/14 02:49:41;;;;;;;;;;;5.10;76.70;;;;;;5110532;28;19924;-85
2022/03/14 02:54:43;;;;;;;;;;;5.00;77.20;;;;;;5111091;27;19912;-85
2022/03/14 02:57:09;;;;;;;;;;;4.50;78.30;;;;;;5111317;28;20337;-85
2022/03/14 02:59:34;;;;;;;;;;;4.50;78.10;;;;;;5110951;28;19907;-85
2022/03/14 03:02:00;;;;;;;;;;;4.50;78.50;;;;;;5110863;28;20332;-85
2022/03/14 03:04:25;;;;;;;;;;;4.60;78.80;;;;;;5110836;28;19946;-85
2022/03/14 03:06:53;;;;;;;;;;;4.60;79.70;;;;;;5111083;28;19916;-85
2022/03/14 03:09:19;;;;;;;;;;;4.60;79.40;;;;;;5110728;28;19944;-85
2022/03/14 03:11:45;;;;;;;;;;;4.80;78.40;;;;;;5110683;28;19959;-85
2022/03/14 03:14:10;;;;;;;;;;;4.90;77.70;;;;;;5110610;28;19947;-85
2022/03/14 03:16:37;;;;;;;;;;;5.00;77.40;;;;;;5110702;28;19941;-85
2022/03/14 03:19:03;;;;;;;;;;;5.10;77.10;;;;;;5110632;28;19908;-85
2022/03/14 03:21:28;;;;;;;;;;;5.00;76.90;;;;;;5110882;28;19953;-85
2022/03/14 03:23:54;;;;;;;;;;;5.00;77.20;;;;;;5110432;28;19912;-85
2022/03/14 03:26:20;;;;;;;;;;;5.00;77.10;;;;;;5110458;28;19930;-85
2022/03/14 03:28:45;;;;;;;;;;;4.90;77.30;;;;;;5110396;28;20365;-85
2022/03/14 03:31:13;;;;;;;;;;;4.80;76.20;;;;;;5110214;28;19915;-85
2022/03/14 03:33:39;;;;;;;;;;;4.90;75.10;;;;;;5110353;28;19912;-85
2022/03/14 03:36:05;;;;;;;;;;;4.90;74.00;;;;;;5110593;28;19914;-85
2022/03/14 03:38:31;;;;;;;;;;;4.90;74.80;;;;;;5110268;28;19915;-85
2022/03/14 03:40:57;;;;;;;;;;;4.80;75.50;;;;;;5110190;28;19908;-85
2022/03/14 03:43:22;;;;;;;;;;;4.80;76.20;;;;;;5110168;28;19908;-85
2022/03/14 03:45:48;;;;;;;;;;;4.80;73.10;;;;;;5110082;28;20006;-85
2022/03/14 03:48:14;;;;;;;;;;;4.80;72.80;;;;;;5110056;28;20269;-85
2022/03/14 03:50:40;;;;;;;;;;;4.70;72.30;;;;;;5110248;28;19944;-85
2022/03/14 03:53:06;;;;;;;;;;;4.70;73.20;;;;;;5109858;28;20354;-85
2022/03/14 03:55:31;;;;;;;;;;;4.80;73.20;;;;;;5109930;28;20293;-85
2022/03/14 03:57:57;;;;;;;;;;;4.70;72.00;;;;;;5109929;28;19908;-86
2022/03/14 04:00:22;;;;;;;;;;;4.60;72.30;;;;;;5109764;28;19908;-85
2022/03/14 04:02:48;;;;;;;;;;;4.60;72.00;;;;;;5109754;28;19908;-85
2022/03/14 04:05:16;;;;;;;;;;;4.70;72.30;;;;;;5100689;28;19946;-86
2022/03/14 04:07:43;;;;;;;;;;;4.90;72.30;;;;;;5096149;28;19909;-86
2022/03/14 04:10:09;;;;;;;;;;;5.00;72.10;;;;;;5096056;28;19908;-86
2022/03/14 04:12:40;;;;;;;;;;;5.20;72.40;;;;;;5095937;28;19920;-86
2022/03/14 04:15:07;;;;;;;;;;;5.40;72.90;;;;;;5095899;28;20285;-86
2022/03/14 04:17:36;;;;;;;;;;;5.50;71.40;;;;;;5095955;28;19994;-85
2022/03/14 04:20:05;;;;;;;;;;;5.40;71.10;;;;;;5095908;28;19954;-85
2022/03/14 04:22:32;;;;;;;;;;;5.30;72.00;;;;;;5095813;28;20388;-85
2022/03/14 04:24:58;;;;;;;;;;;5.20;73.70;;;;;;5095793;28;20433;-85
2022/03/14 04:27:24;;;;;;;;;;;4.90;73.60;;;;;;5095975;28;19912;-85
2022/03/14 04:29:50;;;;;;;;;;;4.70;74.00;;;;;;5095591;28;19994;-85
2022/03/14 04:32:15;;;;;;;;;;;4.70;75.20;;;;;;5095814;28;19908;-86
2022/03/14 04:34:41;;;;;;;;;;;4.70;76.70;;;;;;5095641;28;20350;-85
2022/03/14 04:37:07;;;;;;;;;;;4.70;77.40;;;;;;5095770;28;19908;-86
2022/03/14 04:39:33;;;;;;;;;;;4.70;77.50;;;;;;5095471;28;19908;-86
2022/03/14 04:41:59;;;;;;;;;;;4.70;77.00;;;;;;5095445;28;19908;-86
2022/03/14 04:44:25;;;;;;;;;;;4.70;76.40;;;;;;5095045;28;19946;-86
2022/03/14 04:46:51;;;;;;;;;;;4.70;75.50;;;;;;5095291;28;19951;-86
2022/03/14 04:49:16;;;;;;;;;;;4.70;75.50;;;;;;5095416;28;19942;-86
2022/03/14 04:51:42;;;;;;;;;;;4.70;75.50;;;;;;5095253;28;19931;-86
2022/03/14 04:54:08;;;;;;;;;;;4.70;75.60;;;;;;5094858;28;19962;-86
2022/03/14 04:56:33;;;;;;;;;;;4.70;75.60;;;;;;5094697;28;19952;-85
2022/03/14 04:58:59;;;;;;;;;;;4.70;76.40;;;;;;5095007;28;19915;-85
2022/03/14 05:01:25;;;;;;;;;;;4.60;76.40;;;;;;5094985;28;20362;-85
2022/03/14 05:03:52;;;;;;;;;;;4.50;77.60;;;;;;5094947;28;19908;-85
2022/03/14 05:06:18;;;;;;;;;;;4.50;77.70;;;;;;5094800;28;20277;-85
2022/03/14 05:08:43;;;;;;;;;;;4.40;77.40;;;;;;5094859;28;19930;-85
2022/03/14 05:11:11;;;;;;;;;;;4.40;78.10;;;;;;5094839;28;20370;-85
2022/03/14 05:13:37;;;;;;;;;;;4.40;78.40;;;;;;5094720;28;19912;-85
2022/03/14 05:16:02;;;;;;;;;;;4.40;78.10;;;;;;5093926;28;19915;-85
2022/03/14 05:18:28;;;;;;;;;;;4.50;77.40;;;;;;5094548;28;19908;-86
2022/03/14 05:20:54;;;;;;;;;;;4.50;77.50;;;;;;5094661;28;20266;-85
2022/03/14 05:23:19;;;;;;;;;;;4.50;77.10;;;;;;5094604;28;19908;-85
2022/03/14 05:25:45;;;;;;;;;;;4.50;76.70;;;;;;5094589;28;20011;-85
2022/03/14 05:28:10;;;;;;;;;;;4.50;76.70;;;;;;5094531;28;19995;-86
2022/03/14 05:30:36;;;;;;;;;;;4.50;77.70;;;;;;5094466;28;19995;-86
2022/03/14 05:33:01;;;;;;;;;;;4.70;78.10;;;;;;5094395;28;19973;-85
2022/03/14 05:35:27;;;;;;;;;;;4.70;77.60;;;;;;5094359;28;19908;-85
2022/03/14 05:37:53;;;;;;;;;;;4.80;76.80;;;;;;5094281;28;19915;-85
2022/03/14 05:40:20;;;;;;;;;;;4.70;77.10;;;;;;5094574;28;19908;-85
2022/03/14 05:42:47;;;;;;;;;;;4.70;77.90;;;;;;5094281;28;19915;-85
2022/03/14 05:45:13;;;;;;;;;;;4.70;77.40;;;;;;5094181;28;19915;-85
2022/03/14 05:47:39;;;;;;;;;;;4.70;78.10;;;;;;5094378;28;19915;-85
2022/03/14 05:50:05;;;;;;;;;;;4.60;78.80;;;;;;5094124;28;19908;-85
2022/03/14 05:52:31;;;;;;;;;;;4.40;79.00;;;;;;5091580;28;19920;-85
2022/03/14 05:54:56;;;;;;;;;;;4.40;79.00;;;;;;5082126;28;19920;-85
2022/03/14 05:57:22;;;;;;;;;;;4.40;79.10;;;;;;5097440;28;19919;-85
2022/03/14 05:59:48;;;;;;;;;;;4.50;79.60;;;;;;5088512;28;19912;-85
2022/03/14 06:02:23;;;;;;;;;;;4.50;79.20;;;;;;5085120;28;19947;-85
2022/03/14 06:04:50;;;;;;;;;;;4.60;79.00;;;;;;5087200;28;19912;-86
2022/03/14 06:07:16;;;;;;;;;;;4.70;78.90;;;;;;5079542;28;20278;-85
2022/03/14 06:09:42;;;;;;;;;;;4.70;77.60;;;;;;5084632;28;20348;-86
2022/03/14 06:12:07;;;;;;;;;;;4.70;78.00;;;;;;5075756;28;19908;-85
2022/03/14 06:14:34;;;;;;;;;;;4.90;78.40;;;;;;5087948;28;19973;-85
2022/03/14 06:16:59;;;;;;;;;;;4.90;79.10;;;;;;5091524;28;19948;-85
2022/03/14 06:19:25;;;;;;;;;;;4.90;78.50;;;;;;5087126;28;19955;-85
2022/03/14 06:21:50;;;;;;;;;;;4.90;77.60;;;;;;5086190;28;20283;-85
2022/03/14 06:24:16;;;;;;;;;;;5.00;77.00;;;;;;5082633;28;20170;-85
2022/03/14 06:26:42;;;;;;;;;;;5.00;76.90;;;;;;5089847;28;19916;-85
2022/03/14 06:29:08;;;;;;;;;;;5.00;76.90;;;;;;5088954;28;19920;-85
2022/03/14 06:31:34;;;;;;;;;;;5.00;76.50;;;;;;5074018;28;19916;-85
2022/03/14 06:33:59;;;;;;;;;;;5.00;77.40;;;;;;5083751;28;19916;-85
2022/03/14 06:36:26;;;;;;;;;;;4.90;78.40;;;;;;5081966;28;19912;-85
2022/03/14 06:38:52;;;;;;;;;;;4.80;79.00;;;;;;5073788;28;19912;-85
2022/03/14 06:41:18;;;;;;;;;;;4.90;79.30;;;;;;5084651;28;19954;-85
2022/03/14 06:43:44;;;;;;;;;;;4.90;79.20;;;;;;5083521;28;19951;-86
2022/03/14 06:46:09;;;;;;;;;;;4.90;78.40;;;;;;5085664;28;19966;-85
2022/03/14 06:48:40;;;;;;;;;;;5.00;76.80;;;;;;5089186;28;19912;-86
2022/03/14 06:51:09;;;;;;;;;;;5.00;76.40;;;;;;5083950;28;19913;-85
2022/03/14 06:53:34;;;;;;;;;;;5.30;75.60;;;;;;5077842;28;19924;-86
2022/03/14 06:56:00;;;;;;;;;;;5.50;74.30;;;;;;5083469;28;19913;-86
2022/03/14 06:58:26;;;;;;;;;;;5.70;71.30;;;;;;5088778;28;20369;-86
2022/03/14 07:00:51;;;;;;;;;;;5.80;69.10;;;;;;5088368;28;19919;-86
2022/03/14 07:03:17;;;;;;;;;;;6.00;69.70;;;;;;5084338;28;19951;-86
2022/03/14 07:05:42;;;;;;;;;;;6.10;69.60;;;;;;5087959;28;20266;-86
2022/03/14 07:08:09;;;;;;;;;;;6.30;69.00;;;;;;5088488;28;20282;-86
2022/03/14 07:10:36;;;;;;;;;;;6.30;68.80;;;;;;5085102;28;20056;-86
2022/03/14 07:13:02;;;;;;;;;;;6.40;68.60;;;;;;5084453;28;19916;-86
2022/03/14 07:15:27;;;;;;;;;;;6.40;68.50;;;;;;5085078;28;19920;-86
2022/03/14 07:17:53;;;;;;;;;;;6.50;68.10;;;;;;5087248;28;20343;-86
2022/03/14 07:20:19;;;;;;;;;;;6.70;67.70;;;;;;5081954;28;19920;-86
2022/03/14 07:22:48;;;;;;;;;;;6.90;66.80;;;;;;5080205;28;19912;-86
2022/03/14 07:25:14;;;;;;;;;;;7.10;66.00;;;;;;5084750;28;20344;-86
2022/03/14 07:27:39;;;;;;;;;;;7.30;65.40;;;;;;5084414;28;19921;-87
2022/03/14 07:30:05;;;;;;;;;;;7.50;64.80;;;;;;5084595;28;19912;-86
2022/03/14 07:32:31;;;;;;;;;;;7.50;64.50;;;;;;5083497;28;19935;-86
2022/03/14 07:34:57;;;;;;;;;;;7.60;65.30;;;;;;5083260;28;20258;-86
2022/03/14 07:37:23;;;;;;;;;;;7.60;64.00;;;;;;5082936;28;19912;-86
2022/03/14 07:39:49;;;;;;;;;;;7.70;64.30;;;;;;5085521;28;19912;-86
2022/03/14 07:42:15;;;;;;;;;;;7.70;63.60;;;;;;5087792;28;19912;-86
2022/03/14 07:44:40;;;;;;;;;;;7.80;65.00;;;;;;5088012;28;19918;-86
2022/03/14 07:47:10;;;;;;;;;;;7.80;65.50;;;;;;5092133;28;20258;-86
2022/03/14 07:49:36;;;;;;;;;;;7.80;65.40;;;;;;5090612;28;19916;-86
2022/03/14 07:52:02;;;;;;;;;;;7.90;64.10;;;;;;5083060;28;19950;-86
2022/03/14 07:54:28;;;;;;;;;;;7.90;62.80;;;;;;5099384;28;19923;-85
2022/03/14 07:56:53;;;;;;;;;;;7.80;62.50;;;;;;5088320;28;19916;-86
2022/03/14 07:59:19;;;;;;;;;;;7.80;63.00;;;;;;5087892;28;19924;-85
2022/03/14 08:01:45;;;;;;;;;;;7.90;63.50;;;;;;5086743;28;20002;-86
2022/03/14 08:04:10;;;;;;;;;;;7.90;64.20;;;;;;5082806;28;20336;-86
2022/03/14 08:06:41;;;;;;;;;;;7.90;64.60;;;;;;5084552;28;19912;-86
2022/03/14 08:09:07;;;;;;;;;;;7.90;64.30;;;;;;5082797;28;19919;-86
2022/03/14 08:11:35;;;;;;;;;;;7.90;64.30;;;;;;5087690;28;19920;-86
2022/03/14 08:14:01;;;;;;;;;;;7.90;64.80;;;;;;5082032;28;19917;-86
2022/03/14 08:16:27;;;;;;;;;;;8.10;65.10;;;;;;5085413;28;19950;-86
2022/03/14 08:18:53;;;;;;;;;;;8.40;64.50;;;;;;5087265;28;19917;-86
2022/03/14 08:21:18;;;;;;;;;;;8.50;64.00;;;;;;5088186;28;19912;-86
2022/03/14 08:23:45;;;;;;;;;;;8.70;64.50;;;;;;5091929;28;19962;-86
2022/03/14 08:26:10;;;;;;;;;;;8.80;62.50;;;;;;5091872;28;20165;-85
2022/03/14 08:28:36;;;;;;;;;;;9.00;61.40;;;;;;5099634;28;20330;-85
2022/03/14 08:31:02;;;;;;;;;;;9.00;61.10;;;;;;5082517;28;19912;-85
2022/03/14 08:33:28;;;;;;;;;;;9.20;60.30;;;;;;5083687;28;20354;-85
2022/03/14 08:35:59;;;;;;;;;;;9.40;61.40;;;;;;5085023;28;20277;-86
2022/03/14 08:38:24;;;;;;;;;;;9.40;58.40;;;;;;5085088;28;19917;-86
2022/03/14 08:40:50;;;;;;;;;;;9.40;57.80;;;;;;5086086;28;20504;-86
2022/03/14 08:43:15;;;;;;;;;;;9.50;57.40;;;;;;5081769;28;20330;-87
2022/03/14 08:45:43;;;;;;;;;;;9.80;56.20;;;;;;5083899;28;19920;-86
2022/03/14 08:48:12;;;;;;;;;;;9.90;55.50;;;;;;5085725;28;19921;-86
2022/03/14 08:50:38;;;;;;;;;;;10.00;55.60;;;;;;5084332;28;19912;-86
2022/03/14 08:53:04;;;;;;;;;;;10.20;57.20;;;;;;5087437;28;19943;-87
2022/03/14 08:55:30;;;;;;;;;;;10.40;56.60;;;;;;5086113;28;20314;-88
2022/03/14 08:57:56;;;;;;;;;;;10.40;55.10;;;;;;5087566;28;19913;-88
2022/03/14 09:00:24;;;;;;;;;;;10.40;55.30;;;;;;5084714;28;20017;-88
2022/03/14 09:02:50;;;;;;;;;;;10.60;56.30;;;;;;5090696;28;19947;-86
2022/03/14 09:05:16;;;;;;;;;;;10.40;56.20;;;;;;5089557;28;20342;-86
2022/03/14 09:07:42;;;;;;;;;;;10.50;56.80;;;;;;5088291;28;20427;-86
2022/03/14 09:10:09;;;;;;;;;;;10.30;57.50;;;;;;5090650;28;19912;-86
2022/03/14 09:12:35;;;;;;;;;;;10.10;57.00;;;;;;5083455;28;19931;-86
2022/03/14 09:15:01;;;;;;;;;;;10.10;56.90;;;;;;5090323;28;19912;-86
2022/03/14 09:17:28;;;;;;;;;;;10.10;57.20;;;;;;5084938;28;20006;-86
2022/03/14 09:19:54;;;;;;;;;;;10.10;58.60;;;;;;5079810;28;19919;-86
2022/03/14 09:22:19;;;;;;;;;;;10.10;58.00;;;;;;5080543;28;19958;-86
2022/03/14 09:24:46;;;;;;;;;;;10.10;58.00;;;;;;5080796;28;20004;-86
2022/03/14 09:27:11;;;;;;;;;;;10.10;57.90;;;;;;5082726;28;19947;-86
2022/03/14 09:29:37;;;;;;;;;;;10.20;60.20;;;;;;5086888;28;19962;-86
2022/03/14 09:32:02;;;;;;;;;;;10.30;59.90;;;;;;5086147;28;19912;-86
2022/03/14 09:34:28;;;;;;;;;;;10.20;59.20;;;;;;5091696;28;19922;-86
2022/03/14 09:36:55;;;;;;;;;;;10.20;58.80;;;;;;5087484;28;19954;-86
2022/03/14 09:39:21;;;;;;;;;;;10.30;61.40;;;;;;5087812;28;19912;-86
2022/03/14 09:41:49;;;;;;;;;;;10.40;58.30;;;;;;5084066;28;19912;-86
2022/03/14 09:44:18;;;;;;;;;;;10.40;58.10;;;;;;5090513;28;19920;-86
2022/03/14 09:46:45;;;;;;;;;;;10.40;58.10;;;;;;5092095;28;19937;-86
2022/03/14 09:49:12;;;;;;;;;;;10.40;58.80;;;;;;5095567;28;19937;-86
2022/03/14 09:51:41;;;;;;;;;;;10.40;58.70;;;;;;5084376;28;19948;-86
2022/03/14 09:54:07;;;;;;;;;;;10.40;59.60;;;;;;5080523;28;19920;-87
2022/03/14 09:56:33;;;;;;;;;;;10.50;58.90;;;;;;5085549;28;19919;-86
2022/03/14 09:59:01;;;;;;;;;;;10.80;59.10;;;;;;5083405;28;19925;-86
2022/03/14 10:01:28;;;;;;;;;;;11.10;58.00;;;;;;5083773;28;19963;-86
2022/03/14 10:03:54;;;;;;;;;;;11.20;58.40;;;;;;5079252;28;19912;-86
2022/03/14 10:06:20;;;;;;;;;;;11.50;59.00;;;;;;5086011;28;20358;-86
2022/03/14 10:08:45;;;;;;;;;;;11.40;57.60;;;;;;5086869;28;19948;-86
2022/03/14 10:11:11;;;;;;;;;;;11.30;57.00;;;;;;5080351;28;19912;-86
2022/03/14 10:13:37;;;;;;;;;;;11.30;58.50;;;;;;5087722;28;19923;-86
2022/03/14 10:16:04;;;;;;;;;;;11.30;58.20;;;;;;5088886;28;19919;-86
2022/03/14 10:18:34;;;;;;;;;;;11.30;57.00;;;;;;5085057;28;19925;-86
2022/03/14 10:21:05;;;;;;;;;;;11.40;56.80;;;;;;5084774;28;19912;-85
2022/03/14 10:23:33;;;;;;;;;;;11.40;56.80;;;;;;5088160;28;19922;-86
2022/03/14 10:25:59;;;;;;;;;;;11.40;55.60;;;;;;5087905;28;20377;-85
2022/03/14 10:28:29;;;;;;;;;;;11.40;56.90;;;;;;5083226;28;19916;-86
2022/03/14 10:30:55;;;;;;;;;;;11.60;55.70;;;;;;5085635;28;20430;-86
2022/03/14 10:33:23;;;;;;;;;;;11.80;55.80;;;;;;5083364;28;20270;-86
2022/03/14 10:35:49;;;;;;;;;;;11.80;56.20;;;;;;5087226;28;19911;-85
2022/03/14 10:38:16;;;;;;;;;;;11.70;54.80;;;;;;5090433;28;19980;-85
2022/03/14 10:40:42;;;;;;;;;;;11.50;54.40;;;;;;5084851;28;19920;-85
2022/03/14 10:43:19;;;;;;;;;;;11.40;56.50;;;;;;5078709;28;19912;-86
2022/03/14 10:45:45;;;;;;;;;;;11.50;56.80;;;;;;5080992;28;19916;-85
2022/03/14 10:48:11;;;;;;;;;;;11.50;55.50;;;;;;5080213;28;19995;-86
2022/03/14 10:50:38;;;;;;;;;;;11.50;56.60;;;;;;5080240;28;20339;-87
2022/03/14 10:53:05;;;;;;;;;;;11.70;53.70;;;;;;5090256;22;20296;-87
2022/03/14 10:55:47;;;;;;;;;;;12.10;54.80;;;;;;5087721;28;19959;-87
2022/03/14 10:58:13;;;;;;;;;;;12.20;53.00;;;;;;5087077;28;20074;-87
2022/03/14 11:00:50;;;;;;;;;;;12.40;52.50;;;;;;5085862;28;19919;-86
2022/03/14 11:03:27;;;;;;;;;;;12.30;48.90;;;;;;5087826;28;19921;-86
2022/03/14 11:05:54;;;;;;;;;;;12.20;51.60;;;;;;5083289;28;19912;-87
2022/03/14 11:08:26;;;;;;;;;;;12.20;50.60;;;;;;5084105;28;19940;-87
2022/03/14 11:10:53;;;;;;;;;;;12.40;49.90;;;;;;5072696;28;19912;-87
2022/03/14 11:13:19;;;;;;;;;;;12.70;51.70;;;;;;5073098;28;19920;-87
2022/03/14 11:15:45;;;;;;;;;;;12.50;51.40;;;;;;5075108;28;19939;-87
2022/03/14 11:18:11;;;;;;;;;;;12.30;53.00;;;;;;5076805;28;20282;-87
2022/03/14 11:20:36;;;;;;;;;;;12.30;51.90;;;;;;5076841;28;19909;-87
2022/03/14 11:23:03;;;;;;;;;;;12.40;53.20;;;;;;5076362;28;19913;-87
2022/03/14 11:25:29;;;;;;;;;;;12.70;50.80;;;;;;5084930;28;19920;-87
2022/03/14 11:27:55;;;;;;;;;;;12.90;50.00;;;;;;5078464;28;19917;-87
2022/03/14 11:30:21;;;;;;;;;;;13.10;51.50;;;;;;5079678;28;19920;-87
2022/03/14 11:32:47;;;;;;;;;;;13.30;50.40;;;;;;5076043;28;19916;-87
2022/03/14 11:35:13;;;;;;;;;;;13.30;50.60;;;;;;5076530;28;20383;-87
2022/03/14 11:37:41;;;;;;;;;;;13.40;50.20;;;;;;5076046;28;19948;-87
2022/03/14 11:40:07;;;;;;;;;;;13.50;49.30;;;;;;5076152;28;20001;-87
2022/03/14 11:42:33;;;;;;;;;;;13.40;48.50;;;;;;5076427;28;20324;-87
2022/03/14 11:45:02;;;;;;;;;;;13.30;46.10;;;;;;5077307;28;19944;-87
2022/03/14 11:47:29;;;;;;;;;;;13.40;45.80;;;;;;5075684;28;19927;-87
2022/03/14 11:49:55;;;;;;;;;;;13.80;45.50;;;;;;5076099;28;19974;-87
2022/03/14 11:52:24;;;;;;;;;;;14.20;44.50;;;;;;5075676;28;19931;-87
2022/03/14 11:54:50;;;;;;;;;;;14.10;45.40;;;;;;5088974;28;19916;-87
2022/03/14 11:57:31;;;;;;;;;;;14.20;45.70;;;;;;5093930;28;19908;-87
2022/03/14 11:59:57;;;;;;;;;;;14.60;44.10;;;;;;5075978;28;19913;-87
2022/03/14 12:02:39;;;;;;;;;;;14.40;44.70;;;;;;5075541;28;20326;-87
2022/03/14 12:05:05;;;;;;;;;;;14.30;44.60;;;;;;5088527;28;19920;-88
2022/03/14 12:07:31;;;;;;;;;;;14.90;43.80;;;;;;5075615;28;20449;-88
2022/03/14 12:09:59;;;;;;;;;;;15.60;44.00;;;;;;5076061;28;19959;-88
2022/03/14 12:12:26;;;;;;;;;;;15.80;42.50;;;;;;5075553;28;20089;-87
2022/03/14 12:15:02;;;;;;;;;;;15.70;42.20;;;;;;5075380;28;20015;-87
2022/03/14 12:17:31;;;;;;;;;;;15.20;45.30;;;;;;5075720;28;19908;-87
2022/03/14 12:19:57;;;;;;;;;;;14.90;43.40;;;;;;5055645;28;19909;-87
2022/03/14 12:22:29;;;;;;;;;;;15.10;42.90;;;;;;5074495;28;19965;-87
2022/03/14 12:24:55;;;;;;;;;;;14.80;42.40;;;;;;5086342;28;20223;-87
2022/03/14 12:27:29;;;;;;;;;;;14.60;43.70;;;;;;5094052;28;19908;-87
2022/03/14 12:29:56;;;;;;;;;;;15.10;43.10;;;;;;5074487;28;19962;-87
2022/03/14 12:32:26;;;;;;;;;;;15.80;39.10;;;;;;5078640;28;20003;-87
2022/03/14 12:34:56;;;;;;;;;;;16.20;40.50;;;;;;5072430;28;19923;-87
2022/03/14 12:37:26;;;;;;;;;;;16.40;39.60;;;;;;5073286;28;19971;-87
2022/03/14 12:39:51;;;;;;;;;;;16.80;38.10;;;;;;5072175;28;19959;-88
2022/03/14 12:42:22;;;;;;;;;;;17.70;37.00;;;;;;5093285;28;19952;-88
2022/03/14 12:45:07;;;;;;;;;;;18.60;34.50;;;;;;5075243;28;20416;-88
2022/03/14 12:47:38;;;;;;;;;;;19.00;33.30;;;;;;5073042;28;20470;-88
2022/03/14 12:50:04;;;;;;;;;;;19.10;34.20;;;;;;5082593;28;19948;-87
2022/03/14 12:52:30;;;;;;;;;;;18.00;35.00;;;;;;5072142;28;20057;-87
2022/03/14 12:54:56;;;;;;;;;;;17.80;35.70;;;;;;5074625;28;19916;-87
2022/03/14 12:57:22;;;;;;;;;;;17.90;35.80;;;;;;5074478;28;19939;-87
2022/03/14 12:59:48;;;;;;;;;;;18.40;35.60;;;;;;5076249;28;20007;-87
2022/03/14 13:02:25;;;;;;;;;;;18.50;34.40;;;;;;5084860;28;19912;-88
2022/03/14 13:04:57;;;;;;;;;;;18.90;34.60;;;;;;5070847;28;19970;-87
2022/03/14 13:07:24;;;;;;;;;;;19.30;32.90;;;;;;5072945;28;19944;-87
2022/03/14 13:09:53;;;;;;;;;;;19.40;34.00;;;;;;5073766;28;19920;-88
2022/03/14 13:12:19;;;;;;;;;;;19.50;33.10;;;;;;5072693;28;19920;-87
2022/03/14 13:14:44;;;;;;;;;;;19.10;34.40;;;;;;5072072;28;20345;-87
2022/03/14 13:17:10;;;;;;;;;;;19.10;33.60;;;;;;5073585;28;19913;-88
2022/03/14 13:19:37;;;;;;;;;;;19.70;33.30;;;;;;5070511;28;19920;-87
2022/03/14 13:22:12;;;;;;;;;;;19.20;33.60;;;;;;5070671;28;19913;-87
2022/03/14 13:24:38;;;;;;;;;;;18.30;35.30;;;;;;5074329;28;20082;-87
2022/03/14 13:27:03;;;;;;;;;;;18.40;36.50;;;;;;5071945;28;20007;-87
2022/03/14 13:29:33;;;;;;;;;;;18.50;35.70;;;;;;5075308;28;19974;-87
2022/03/14 13:32:00;;;;;;;;;;;19.20;34.50;;;;;;5071631;28;20367;-88
2022/03/14 13:34:28;;;;;;;;;;;19.90;33.20;;;;;;5072862;28;20378;-88
2022/03/14 13:37:01;;;;;;;;;;;20.80;33.10;;;;;;5071047;28;19917;-88
2022/03/14 13:39:28;;;;;;;;;;;21.20;31.90;;;;;;5073932;28;20171;-87
2022/03/14 13:41:57;;;;;;;;;;;20.80;31.00;;;;;;5070604;28;19960;-86
2022/03/14 13:44:24;;;;;;;;;;;19.60;33.00;;;;;;5072521;28;20378;-87
2022/03/14 13:46:49;;;;;;;;;;;19.50;33.00;;;;;;5076089;28;19920;-87
2022/03/14 13:49:15;;;;;;;;;;;20.00;33.00;;;;;;5073201;28;19916;-87
2022/03/14 13:51:41;;;;;;;;;;;20.10;31.80;;;;;;5069842;28;20018;-87
2022/03/14 13:56:20;;;;;;;;;;;19.30;32.50;;;;;;5104593;27;19934;-87
2022/03/14 13:58:53;;;;;;;;;;;20.00;32.50;;;;;;5088225;28;19917;-88
2022/03/14 14:02:35;;;;;;;;;;;20.70;32.30;;;;;;5062377;28;19916;-87
2022/03/14 14:05:08;;;;;;;;;;;20.80;30.90;;;;;;5049772;28;19919;-87
2022/03/14 14:08:34;;;;;;;;;;;20.50;31.80;;;;;;5086505;27;19923;-87
2022/03/14 14:11:01;;;;;;;;;;;20.30;31.80;;;;;;5061662;28;19927;-87
2022/03/14 14:13:45;;;;;;;;;;;20.40;31.00;;;;;;5065530;28;20009;-86
2022/03/14 14:16:18;;;;;;;;;;;20.00;31.60;;;;;;5064794;28;19956;-87
2022/03/14 14:18:44;;;;;;;;;;;19.40;32.20;;;;;;5062204;28;19913;-86
2022/03/14 14:42:17;;;;;;;;;;;20.00;32.20;;;;;;5124731;27;19915;-87
2022/03/14 14:44:43;;;;;;;;;;;19.80;33.30;;;;;;5108986;28;19919;-87
2022/03/14 14:47:11;;;;;;;;;;;20.20;32.70;;;;;;5110093;28;19939;-86
2022/03/14 14:49:37;;;;;;;;;;;19.40;34.80;;;;;;5113044;28;19912;-87
2022/03/14 14:52:03;;;;;;;;;;;19.80;34.70;;;;;;5108333;28;19912;-87
2022/03/14 14:54:28;;;;;;;;;;;20.40;34.30;;;;;;5108971;28;20276;-87
2022/03/14 14:56:55;;;;;;;;;;;20.30;33.20;;;;;;5109743;28;20336;-87
2022/03/14 14:59:20;;;;;;;;;;;20.50;32.50;;;;;;5111610;28;19918;-87
2022/03/14 15:01:46;;;;;;;;;;;19.60;33.70;;;;;;5117418;28;20018;-87